sensor_id;sensor_type;location;lat;lon;timestamp;P1;durP1;ratioP1;P2;durP2;ratioP2
12535;SDS011;6334;48.696;2.114;2023-04-05T00:01:17;10.33;;;6.33;;
12535;SDS011;6334;48.696;2.114;2023-04-05T00:03:47;11.00;;;6.17;;
12535;SDS011;6334;48.696;2.114;2023-04-05T00:06:18;10.27;;;6.30;;
12535;SDS011;6334;48.696;2.114;2023-04-05T00:08:56;11.23;;;6.67;;
12535;SDS011;6334;48.696;2.114;2023-04-05T00:11:24;12.57;;;7.10;;
12535;SDS011;6334;48.696;2.114;2023-04-05T00:13:55;10.33;;;6.40;;
12535;SDS011;6334;48.696;2.114;2023-04-05T00:16:25;11.30;;;5.97;;
12535;SDS011;6334;48.696;2.114;2023-04-05T00:18:55;9.73;;;5.80;;
12535;SDS011;6334;48.696;2.114;2023-04-05T00:21:25;11.07;;;7.00;;
12535;SDS011;6334;48.696;2.114;2023-04-05T00:24:06;12.37;;;6.80;;
12535;SDS011;6334;48.696;2.114;2023-04-05T00:26:36;12.47;;;6.77;;
12535;SDS011;6334;48.696;2.114;2023-04-05T00:29:07;14.03;;;7.30;;
12535;SDS011;6334;48.696;2.114;2023-04-05T00:31:37;10.27;;;6.67;;
12535;SDS011;6334;48.696;2.114;2023-04-05T00:34:07;12.00;;;7.37;;
12535;SDS011;6334;48.696;2.114;2023-04-05T00:36:38;12.63;;;6.83;;
12535;SDS011;6334;48.696;2.114;2023-04-05T00:39:08;11.87;;;7.20;;
12535;SDS011;6334;48.696;2.114;2023-04-05T00:41:39;13.23;;;7.90;;
12535;SDS011;6334;48.696;2.114;2023-04-05T00:44:09;12.20;;;7.37;;
12535;SDS011;6334;48.696;2.114;2023-04-05T00:46:40;13.77;;;8.10;;
12535;SDS011;6334;48.696;2.114;2023-04-05T00:49:10;11.60;;;7.40;;
12535;SDS011;6334;48.696;2.114;2023-04-05T00:51:41;11.60;;;7.57;;
12535;SDS011;6334;48.696;2.114;2023-04-05T00:54:11;12.90;;;7.90;;
12535;SDS011;6334;48.696;2.114;2023-04-05T00:56:42;13.20;;;7.50;;
12535;SDS011;6334;48.696;2.114;2023-04-05T00:59:11;12.87;;;7.57;;
12535;SDS011;6334;48.696;2.114;2023-04-05T01:01:42;12.07;;;6.77;;
12535;SDS011;6334;48.696;2.114;2023-04-05T01:04:15;11.97;;;7.03;;
12535;SDS011;6334;48.696;2.114;2023-04-05T01:06:57;10.70;;;7.03;;
12535;SDS011;6334;48.696;2.114;2023-04-05T01:09:44;11.73;;;6.80;;
12535;SDS011;6334;48.696;2.114;2023-04-05T01:12:11;12.77;;;7.33;;
12535;SDS011;6334;48.696;2.114;2023-04-05T01:14:47;13.77;;;7.53;;
12535;SDS011;6334;48.696;2.114;2023-04-05T01:17:13;10.33;;;6.63;;
12535;SDS011;6334;48.696;2.114;2023-04-05T01:19:43;11.40;;;6.97;;
12535;SDS011;6334;48.696;2.114;2023-04-05T01:22:24;13.03;;;6.97;;
12535;SDS011;6334;48.696;2.114;2023-04-05T01:25:13;13.10;;;7.43;;
12535;SDS011;6334;48.696;2.114;2023-04-05T01:30:51;10.53;;;6.47;;
12535;SDS011;6334;48.696;2.114;2023-04-05T01:33:30;14.10;;;7.47;;
12535;SDS011;6334;48.696;2.114;2023-04-05T01:38:59;11.53;;;7.03;;
12535;SDS011;6334;48.696;2.114;2023-04-05T01:41:30;14.20;;;8.37;;
12535;SDS011;6334;48.696;2.114;2023-04-05T01:44:00;12.67;;;8.40;;
12535;SDS011;6334;48.696;2.114;2023-04-05T01:46:30;13.77;;;8.13;;
12535;SDS011;6334;48.696;2.114;2023-04-05T01:48:59;13.10;;;7.80;;
12535;SDS011;6334;48.696;2.114;2023-04-05T01:51:30;11.73;;;7.83;;
12535;SDS011;6334;48.696;2.114;2023-04-05T01:54:02;12.53;;;7.47;;
12535;SDS011;6334;48.696;2.114;2023-04-05T01:56:32;12.73;;;6.70;;
12535;SDS011;6334;48.696;2.114;2023-04-05T01:59:02;12.87;;;7.13;;
12535;SDS011;6334;48.696;2.114;2023-04-05T02:01:31;12.20;;;7.20;;
12535;SDS011;6334;48.696;2.114;2023-04-05T02:04:02;10.50;;;6.57;;
12535;SDS011;6334;48.696;2.114;2023-04-05T02:06:32;11.60;;;6.40;;
12535;SDS011;6334;48.696;2.114;2023-04-05T02:09:03;12.47;;;6.67;;
12535;SDS011;6334;48.696;2.114;2023-04-05T02:11:33;10.97;;;6.93;;
12535;SDS011;6334;48.696;2.114;2023-04-05T02:14:04;11.53;;;7.00;;
12535;SDS011;6334;48.696;2.114;2023-04-05T02:16:35;11.23;;;6.70;;
12535;SDS011;6334;48.696;2.114;2023-04-05T02:19:04;10.80;;;6.43;;
12535;SDS011;6334;48.696;2.114;2023-04-05T02:21:34;14.10;;;7.47;;
12535;SDS011;6334;48.696;2.114;2023-04-05T02:24:05;12.67;;;7.83;;
12535;SDS011;6334;48.696;2.114;2023-04-05T02:26:34;14.07;;;7.33;;
12535;SDS011;6334;48.696;2.114;2023-04-05T02:29:05;14.40;;;7.27;;
12535;SDS011;6334;48.696;2.114;2023-04-05T02:31:35;12.57;;;7.10;;
12535;SDS011;6334;48.696;2.114;2023-04-05T02:34:06;10.77;;;6.43;;
12535;SDS011;6334;48.696;2.114;2023-04-05T02:36:36;9.67;;;6.07;;
12535;SDS011;6334;48.696;2.114;2023-04-05T02:39:07;10.63;;;6.80;;
12535;SDS011;6334;48.696;2.114;2023-04-05T02:41:37;11.47;;;6.80;;
12535;SDS011;6334;48.696;2.114;2023-04-05T02:44:07;12.23;;;7.13;;
12535;SDS011;6334;48.696;2.114;2023-04-05T02:46:37;12.10;;;7.17;;
12535;SDS011;6334;48.696;2.114;2023-04-05T02:49:08;11.50;;;7.70;;
12535;SDS011;6334;48.696;2.114;2023-04-05T02:51:38;16.63;;;7.67;;
12535;SDS011;6334;48.696;2.114;2023-04-05T02:54:08;11.40;;;7.00;;
12535;SDS011;6334;48.696;2.114;2023-04-05T02:56:39;11.00;;;6.90;;
12535;SDS011;6334;48.696;2.114;2023-04-05T02:59:10;12.23;;;6.90;;
12535;SDS011;6334;48.696;2.114;2023-04-05T03:01:41;11.03;;;6.30;;
12535;SDS011;6334;48.696;2.114;2023-04-05T03:04:10;11.67;;;6.57;;
12535;SDS011;6334;48.696;2.114;2023-04-05T03:06:40;11.30;;;6.57;;
12535;SDS011;6334;48.696;2.114;2023-04-05T03:09:11;10.03;;;6.63;;
12535;SDS011;6334;48.696;2.114;2023-04-05T03:11:41;9.63;;;6.50;;
12535;SDS011;6334;48.696;2.114;2023-04-05T03:14:12;10.10;;;6.23;;
12535;SDS011;6334;48.696;2.114;2023-04-05T03:16:42;12.57;;;6.77;;
12535;SDS011;6334;48.696;2.114;2023-04-05T03:19:13;12.70;;;6.77;;
12535;SDS011;6334;48.696;2.114;2023-04-05T03:21:43;12.37;;;7.30;;
12535;SDS011;6334;48.696;2.114;2023-04-05T03:24:14;11.73;;;6.73;;
12535;SDS011;6334;48.696;2.114;2023-04-05T03:26:46;11.13;;;6.17;;
12535;SDS011;6334;48.696;2.114;2023-04-05T03:29:16;10.47;;;6.50;;
12535;SDS011;6334;48.696;2.114;2023-04-05T03:31:48;10.07;;;6.43;;
12535;SDS011;6334;48.696;2.114;2023-04-05T03:34:16;9.43;;;6.53;;
12535;SDS011;6334;48.696;2.114;2023-04-05T03:36:46;11.67;;;6.60;;
12535;SDS011;6334;48.696;2.114;2023-04-05T03:39:16;10.47;;;6.33;;
12535;SDS011;6334;48.696;2.114;2023-04-05T03:41:46;12.13;;;6.87;;
12535;SDS011;6334;48.696;2.114;2023-04-05T03:44:16;11.97;;;7.40;;
12535;SDS011;6334;48.696;2.114;2023-04-05T03:46:46;11.40;;;6.60;;
12535;SDS011;6334;48.696;2.114;2023-04-05T03:49:17;13.43;;;7.27;;
12535;SDS011;6334;48.696;2.114;2023-04-05T03:51:47;10.33;;;6.60;;
12535;SDS011;6334;48.696;2.114;2023-04-05T03:54:19;12.73;;;7.27;;
12535;SDS011;6334;48.696;2.114;2023-04-05T03:56:49;12.27;;;6.77;;
12535;SDS011;6334;48.696;2.114;2023-04-05T03:59:20;12.53;;;7.23;;
12535;SDS011;6334;48.696;2.114;2023-04-05T04:01:51;12.63;;;7.07;;
12535;SDS011;6334;48.696;2.114;2023-04-05T04:04:21;12.30;;;6.57;;
12535;SDS011;6334;48.696;2.114;2023-04-05T04:06:51;13.47;;;6.93;;
12535;SDS011;6334;48.696;2.114;2023-04-05T04:09:21;13.90;;;7.13;;
12535;SDS011;6334;48.696;2.114;2023-04-05T04:11:52;12.20;;;6.87;;
12535;SDS011;6334;48.696;2.114;2023-04-05T04:14:22;11.40;;;6.93;;
12535;SDS011;6334;48.696;2.114;2023-04-05T04:16:51;11.30;;;7.17;;
12535;SDS011;6334;48.696;2.114;2023-04-05T04:19:21;16.50;;;7.57;;
12535;SDS011;6334;48.696;2.114;2023-04-05T04:21:51;11.93;;;7.13;;
12535;SDS011;6334;48.696;2.114;2023-04-05T04:24:21;13.00;;;7.17;;
12535;SDS011;6334;48.696;2.114;2023-04-05T04:26:50;12.97;;;7.23;;
12535;SDS011;6334;48.696;2.114;2023-04-05T04:29:20;13.13;;;7.40;;
12535;SDS011;6334;48.696;2.114;2023-04-05T04:31:50;12.27;;;6.97;;
12535;SDS011;6334;48.696;2.114;2023-04-05T04:34:20;11.93;;;7.13;;
12535;SDS011;6334;48.696;2.114;2023-04-05T04:36:51;11.90;;;6.73;;
12535;SDS011;6334;48.696;2.114;2023-04-05T04:39:21;11.30;;;6.50;;
12535;SDS011;6334;48.696;2.114;2023-04-05T04:41:51;12.17;;;7.20;;
12535;SDS011;6334;48.696;2.114;2023-04-05T04:44:21;14.27;;;7.20;;
12535;SDS011;6334;48.696;2.114;2023-04-05T04:46:52;11.53;;;6.73;;
12535;SDS011;6334;48.696;2.114;2023-04-05T04:49:22;13.50;;;6.90;;
12535;SDS011;6334;48.696;2.114;2023-04-05T04:51:52;11.80;;;6.83;;
12535;SDS011;6334;48.696;2.114;2023-04-05T04:54:22;13.10;;;6.93;;
12535;SDS011;6334;48.696;2.114;2023-04-05T04:56:52;10.93;;;6.60;;
12535;SDS011;6334;48.696;2.114;2023-04-05T04:59:22;11.07;;;6.90;;
12535;SDS011;6334;48.696;2.114;2023-04-05T05:01:53;14.13;;;7.00;;
12535;SDS011;6334;48.696;2.114;2023-04-05T05:04:23;11.97;;;6.70;;
12535;SDS011;6334;48.696;2.114;2023-04-05T05:06:53;11.83;;;6.80;;
12535;SDS011;6334;48.696;2.114;2023-04-05T05:09:23;10.63;;;6.93;;
12535;SDS011;6334;48.696;2.114;2023-04-05T05:11:54;12.03;;;6.90;;
12535;SDS011;6334;48.696;2.114;2023-04-05T05:14:24;12.67;;;7.00;;
12535;SDS011;6334;48.696;2.114;2023-04-05T05:16:54;12.50;;;6.87;;
12535;SDS011;6334;48.696;2.114;2023-04-05T05:19:27;13.70;;;7.67;;
12535;SDS011;6334;48.696;2.114;2023-04-05T05:21:58;11.77;;;7.20;;
12535;SDS011;6334;48.696;2.114;2023-04-05T05:24:28;11.70;;;7.80;;
12535;SDS011;6334;48.696;2.114;2023-04-05T05:26:58;13.63;;;7.70;;
12535;SDS011;6334;48.696;2.114;2023-04-05T05:29:28;13.60;;;7.53;;
12535;SDS011;6334;48.696;2.114;2023-04-05T05:31:59;12.33;;;7.07;;
12535;SDS011;6334;48.696;2.114;2023-04-05T05:34:29;11.50;;;7.30;;
12535;SDS011;6334;48.696;2.114;2023-04-05T05:36:59;11.37;;;6.67;;
12535;SDS011;6334;48.696;2.114;2023-04-05T05:39:30;13.10;;;7.23;;
12535;SDS011;6334;48.696;2.114;2023-04-05T05:42:00;12.30;;;7.63;;
12535;SDS011;6334;48.696;2.114;2023-04-05T05:44:29;12.43;;;7.10;;
12535;SDS011;6334;48.696;2.114;2023-04-05T05:47:00;8.20;;;5.23;;
12535;SDS011;6334;48.696;2.114;2023-04-05T05:49:29;12.00;;;7.07;;
12535;SDS011;6334;48.696;2.114;2023-04-05T05:52:00;12.23;;;6.70;;
12535;SDS011;6334;48.696;2.114;2023-04-05T05:54:30;14.27;;;7.63;;
12535;SDS011;6334;48.696;2.114;2023-04-05T05:57:01;13.30;;;7.50;;
12535;SDS011;6334;48.696;2.114;2023-04-05T05:59:31;12.87;;;6.97;;
12535;SDS011;6334;48.696;2.114;2023-04-05T06:02:02;12.07;;;7.73;;
12535;SDS011;6334;48.696;2.114;2023-04-05T06:04:32;11.13;;;6.67;;
12535;SDS011;6334;48.696;2.114;2023-04-05T06:07:03;13.23;;;7.37;;
12535;SDS011;6334;48.696;2.114;2023-04-05T06:09:33;11.10;;;6.97;;
12535;SDS011;6334;48.696;2.114;2023-04-05T06:12:04;11.73;;;7.07;;
12535;SDS011;6334;48.696;2.114;2023-04-05T06:14:34;11.60;;;6.97;;
12535;SDS011;6334;48.696;2.114;2023-04-05T06:17:05;13.97;;;7.90;;
12535;SDS011;6334;48.696;2.114;2023-04-05T06:19:35;13.23;;;8.13;;
12535;SDS011;6334;48.696;2.114;2023-04-05T06:22:07;17.73;;;9.50;;
12535;SDS011;6334;48.696;2.114;2023-04-05T06:24:38;14.60;;;8.90;;
12535;SDS011;6334;48.696;2.114;2023-04-05T06:27:08;15.20;;;9.17;;
12535;SDS011;6334;48.696;2.114;2023-04-05T06:29:38;14.57;;;8.47;;
12535;SDS011;6334;48.696;2.114;2023-04-05T06:32:09;13.60;;;7.80;;
12535;SDS011;6334;48.696;2.114;2023-04-05T06:34:39;13.03;;;8.17;;
12535;SDS011;6334;48.696;2.114;2023-04-05T06:37:10;13.40;;;8.00;;
12535;SDS011;6334;48.696;2.114;2023-04-05T06:39:46;13.63;;;7.93;;
12535;SDS011;6334;48.696;2.114;2023-04-05T06:42:17;12.27;;;7.43;;
12535;SDS011;6334;48.696;2.114;2023-04-05T06:44:47;12.10;;;7.60;;
12535;SDS011;6334;48.696;2.114;2023-04-05T06:47:17;11.50;;;7.37;;
12535;SDS011;6334;48.696;2.114;2023-04-05T06:49:48;13.10;;;7.50;;
12535;SDS011;6334;48.696;2.114;2023-04-05T06:52:18;11.97;;;7.40;;
12535;SDS011;6334;48.696;2.114;2023-04-05T06:54:49;13.20;;;8.07;;
12535;SDS011;6334;48.696;2.114;2023-04-05T06:57:19;12.80;;;8.30;;
12535;SDS011;6334;48.696;2.114;2023-04-05T06:59:50;12.57;;;8.10;;
12535;SDS011;6334;48.696;2.114;2023-04-05T07:02:21;14.00;;;8.50;;
12535;SDS011;6334;48.696;2.114;2023-04-05T07:04:51;13.63;;;8.40;;
12535;SDS011;6334;48.696;2.114;2023-04-05T07:07:21;13.07;;;8.03;;
12535;SDS011;6334;48.696;2.114;2023-04-05T07:09:52;11.43;;;7.53;;
12535;SDS011;6334;48.696;2.114;2023-04-05T07:12:24;11.60;;;7.47;;
12535;SDS011;6334;48.696;2.114;2023-04-05T07:14:54;14.23;;;7.90;;
12535;SDS011;6334;48.696;2.114;2023-04-05T07:17:25;12.70;;;7.67;;
12535;SDS011;6334;48.696;2.114;2023-04-05T07:19:55;12.80;;;7.13;;
12535;SDS011;6334;48.696;2.114;2023-04-05T07:22:26;12.20;;;7.13;;
12535;SDS011;6334;48.696;2.114;2023-04-05T07:24:56;12.87;;;7.50;;
12535;SDS011;6334;48.696;2.114;2023-04-05T07:27:28;13.70;;;6.97;;
12535;SDS011;6334;48.696;2.114;2023-04-05T07:29:57;10.90;;;7.27;;
12535;SDS011;6334;48.696;2.114;2023-04-05T07:32:28;11.93;;;7.57;;
12535;SDS011;6334;48.696;2.114;2023-04-05T07:34:58;13.83;;;8.57;;
12535;SDS011;6334;48.696;2.114;2023-04-05T07:37:29;14.10;;;8.30;;
12535;SDS011;6334;48.696;2.114;2023-04-05T07:39:59;11.90;;;7.57;;
12535;SDS011;6334;48.696;2.114;2023-04-05T07:42:29;12.03;;;7.70;;
12535;SDS011;6334;48.696;2.114;2023-04-05T07:45:00;14.63;;;8.87;;
12535;SDS011;6334;48.696;2.114;2023-04-05T07:47:33;11.87;;;7.80;;
12535;SDS011;6334;48.696;2.114;2023-04-05T07:50:04;14.40;;;8.53;;
12535;SDS011;6334;48.696;2.114;2023-04-05T07:52:34;14.27;;;8.53;;
12535;SDS011;6334;48.696;2.114;2023-04-05T07:55:05;20.73;;;12.27;;
12535;SDS011;6334;48.696;2.114;2023-04-05T07:57:37;16.97;;;9.13;;
12535;SDS011;6334;48.696;2.114;2023-04-05T08:00:07;15.83;;;8.70;;
12535;SDS011;6334;48.696;2.114;2023-04-05T08:02:40;13.17;;;8.27;;
12535;SDS011;6334;48.696;2.114;2023-04-05T08:05:10;12.77;;;7.70;;
12535;SDS011;6334;48.696;2.114;2023-04-05T08:07:41;15.50;;;7.97;;
12535;SDS011;6334;48.696;2.114;2023-04-05T08:10:11;13.57;;;8.20;;
12535;SDS011;6334;48.696;2.114;2023-04-05T08:12:42;11.90;;;7.37;;
12535;SDS011;6334;48.696;2.114;2023-04-05T08:15:12;12.77;;;7.87;;
12535;SDS011;6334;48.696;2.114;2023-04-05T08:17:43;13.80;;;7.70;;
12535;SDS011;6334;48.696;2.114;2023-04-05T08:20:13;12.03;;;7.43;;
12535;SDS011;6334;48.696;2.114;2023-04-05T08:22:43;11.93;;;7.53;;
12535;SDS011;6334;48.696;2.114;2023-04-05T08:25:14;11.97;;;8.00;;
12535;SDS011;6334;48.696;2.114;2023-04-05T08:27:45;14.20;;;7.77;;
12535;SDS011;6334;48.696;2.114;2023-04-05T08:30:15;12.50;;;7.73;;
12535;SDS011;6334;48.696;2.114;2023-04-05T08:32:46;13.03;;;7.33;;
12535;SDS011;6334;48.696;2.114;2023-04-05T08:35:16;11.37;;;7.07;;
12535;SDS011;6334;48.696;2.114;2023-04-05T08:37:47;12.20;;;6.77;;
12535;SDS011;6334;48.696;2.114;2023-04-05T08:40:18;11.57;;;7.23;;
12535;SDS011;6334;48.696;2.114;2023-04-05T08:42:53;11.97;;;7.03;;
12535;SDS011;6334;48.696;2.114;2023-04-05T08:45:22;12.83;;;7.70;;
12535;SDS011;6334;48.696;2.114;2023-04-05T08:47:52;13.93;;;7.70;;
12535;SDS011;6334;48.696;2.114;2023-04-05T08:50:23;13.30;;;6.77;;
12535;SDS011;6334;48.696;2.114;2023-04-05T08:52:53;10.50;;;6.70;;
12535;SDS011;6334;48.696;2.114;2023-04-05T08:55:24;10.57;;;6.43;;
12535;SDS011;6334;48.696;2.114;2023-04-05T08:57:55;11.07;;;6.63;;
12535;SDS011;6334;48.696;2.114;2023-04-05T09:00:26;11.17;;;6.80;;
12535;SDS011;6334;48.696;2.114;2023-04-05T09:02:56;12.53;;;6.90;;
12535;SDS011;6334;48.696;2.114;2023-04-05T09:05:28;11.73;;;6.20;;
12535;SDS011;6334;48.696;2.114;2023-04-05T09:07:58;11.53;;;6.53;;
12535;SDS011;6334;48.696;2.114;2023-04-05T09:10:29;14.93;;;6.60;;
12535;SDS011;6334;48.696;2.114;2023-04-05T09:12:59;15.57;;;7.20;;
12535;SDS011;6334;48.696;2.114;2023-04-05T09:15:30;10.97;;;6.47;;
12535;SDS011;6334;48.696;2.114;2023-04-05T09:18:00;11.03;;;6.77;;
12535;SDS011;6334;48.696;2.114;2023-04-05T09:20:31;11.70;;;6.83;;
12535;SDS011;6334;48.696;2.114;2023-04-05T09:23:01;12.00;;;6.73;;
12535;SDS011;6334;48.696;2.114;2023-04-05T09:25:35;11.23;;;6.80;;
12535;SDS011;6334;48.696;2.114;2023-04-05T09:28:08;11.17;;;6.60;;
12535;SDS011;6334;48.696;2.114;2023-04-05T09:30:44;11.93;;;6.93;;
12535;SDS011;6334;48.696;2.114;2023-04-05T09:33:14;11.63;;;6.67;;
12535;SDS011;6334;48.696;2.114;2023-04-05T09:35:44;10.63;;;6.37;;
12535;SDS011;6334;48.696;2.114;2023-04-05T09:38:14;13.37;;;7.30;;
12535;SDS011;6334;48.696;2.114;2023-04-05T09:40:48;12.17;;;7.33;;
12535;SDS011;6334;48.696;2.114;2023-04-05T09:49:02;12.43;;;6.53;;
12535;SDS011;6334;48.696;2.114;2023-04-05T09:51:33;11.13;;;6.77;;
12535;SDS011;6334;48.696;2.114;2023-04-05T09:54:06;11.57;;;6.70;;
12535;SDS011;6334;48.696;2.114;2023-04-05T09:56:37;11.43;;;6.53;;
12535;SDS011;6334;48.696;2.114;2023-04-05T09:59:10;11.50;;;6.33;;
12535;SDS011;6334;48.696;2.114;2023-04-05T10:01:43;10.80;;;6.23;;
12535;SDS011;6334;48.696;2.114;2023-04-05T10:04:13;10.57;;;6.63;;
12535;SDS011;6334;48.696;2.114;2023-04-05T10:06:44;12.17;;;6.40;;
12535;SDS011;6334;48.696;2.114;2023-04-05T10:09:15;12.73;;;6.50;;
12535;SDS011;6334;48.696;2.114;2023-04-05T10:11:46;9.53;;;6.43;;
12535;SDS011;6334;48.696;2.114;2023-04-05T10:14:17;10.53;;;6.53;;
12535;SDS011;6334;48.696;2.114;2023-04-05T10:16:52;9.50;;;6.33;;
12535;SDS011;6334;48.696;2.114;2023-04-05T10:19:44;11.23;;;6.43;;
12535;SDS011;6334;48.696;2.114;2023-04-05T10:22:29;11.07;;;6.30;;
12535;SDS011;6334;48.696;2.114;2023-04-05T10:25:07;9.60;;;6.53;;
12535;SDS011;6334;48.696;2.114;2023-04-05T10:27:43;10.67;;;6.10;;
12535;SDS011;6334;48.696;2.114;2023-04-05T10:30:11;13.00;;;7.20;;
12535;SDS011;6334;48.696;2.114;2023-04-05T10:38:25;9.03;;;5.87;;
12535;SDS011;6334;48.696;2.114;2023-04-05T10:41:11;11.40;;;6.90;;
12535;SDS011;6334;48.696;2.114;2023-04-05T10:43:42;10.93;;;6.53;;
12535;SDS011;6334;48.696;2.114;2023-04-05T10:46:12;10.97;;;6.40;;
12535;SDS011;6334;48.696;2.114;2023-04-05T10:51:31;10.33;;;6.40;;
12535;SDS011;6334;48.696;2.114;2023-04-05T10:54:01;10.33;;;6.40;;
12535;SDS011;6334;48.696;2.114;2023-04-05T10:56:31;10.13;;;6.13;;
12535;SDS011;6334;48.696;2.114;2023-04-05T10:59:02;9.20;;;6.13;;
12535;SDS011;6334;48.696;2.114;2023-04-05T11:01:32;11.60;;;6.80;;
12535;SDS011;6334;48.696;2.114;2023-04-05T11:06:42;10.20;;;6.03;;
12535;SDS011;6334;48.696;2.114;2023-04-05T11:09:13;11.90;;;6.73;;
12535;SDS011;6334;48.696;2.114;2023-04-05T11:11:50;10.03;;;6.13;;
12535;SDS011;6334;48.696;2.114;2023-04-05T11:14:26;11.13;;;6.83;;
12535;SDS011;6334;48.696;2.114;2023-04-05T11:16:55;10.43;;;6.37;;
12535;SDS011;6334;48.696;2.114;2023-04-05T11:22:23;12.00;;;6.60;;
12535;SDS011;6334;48.696;2.114;2023-04-05T11:24:54;10.83;;;6.57;;
12535;SDS011;6334;48.696;2.114;2023-04-05T11:27:24;8.23;;;5.63;;
12535;SDS011;6334;48.696;2.114;2023-04-05T11:29:57;10.30;;;6.40;;
12535;SDS011;6334;48.696;2.114;2023-04-05T11:32:41;11.67;;;6.33;;
12535;SDS011;6334;48.696;2.114;2023-04-05T11:37:52;10.07;;;5.87;;
12535;SDS011;6334;48.696;2.114;2023-04-05T11:40:24;10.97;;;5.90;;
12535;SDS011;6334;48.696;2.114;2023-04-05T11:43:06;10.17;;;5.97;;
12535;SDS011;6334;48.696;2.114;2023-04-05T11:45:38;10.17;;;5.97;;
12535;SDS011;6334;48.696;2.114;2023-04-05T11:48:11;10.63;;;6.20;;
12535;SDS011;6334;48.696;2.114;2023-04-05T11:50:39;9.80;;;5.70;;
12535;SDS011;6334;48.696;2.114;2023-04-05T11:53:16;9.53;;;5.93;;
12535;SDS011;6334;48.696;2.114;2023-04-05T11:55:48;10.37;;;6.10;;
12535;SDS011;6334;48.696;2.114;2023-04-05T11:58:21;10.57;;;6.13;;
12535;SDS011;6334;48.696;2.114;2023-04-05T12:00:56;10.33;;;5.97;;
12535;SDS011;6334;48.696;2.114;2023-04-05T12:03:26;12.60;;;6.83;;
12535;SDS011;6334;48.696;2.114;2023-04-05T12:05:58;11.80;;;7.13;;
12535;SDS011;6334;48.696;2.114;2023-04-05T12:08:39;11.80;;;6.40;;
12535;SDS011;6334;48.696;2.114;2023-04-05T12:11:09;11.90;;;7.35;;
12535;SDS011;6334;48.696;2.114;2023-04-05T12:13:39;13.63;;;6.77;;
12535;SDS011;6334;48.696;2.114;2023-04-05T12:16:11;11.97;;;6.37;;
12535;SDS011;6334;48.696;2.114;2023-04-05T12:18:42;9.73;;;6.13;;
12535;SDS011;6334;48.696;2.114;2023-04-05T12:21:12;12.30;;;6.37;;
12535;SDS011;6334;48.696;2.114;2023-04-05T12:23:43;9.93;;;5.60;;
12535;SDS011;6334;48.696;2.114;2023-04-05T12:26:13;9.07;;;5.87;;
12535;SDS011;6334;48.696;2.114;2023-04-05T12:34:08;10.20;;;5.83;;
12535;SDS011;6334;48.696;2.114;2023-04-05T12:36:42;13.17;;;5.93;;
12535;SDS011;6334;48.696;2.114;2023-04-05T12:39:09;10.13;;;6.17;;
12535;SDS011;6334;48.696;2.114;2023-04-05T12:41:39;9.60;;;5.93;;
12535;SDS011;6334;48.696;2.114;2023-04-05T12:44:16;10.93;;;6.50;;
12535;SDS011;6334;48.696;2.114;2023-04-05T12:46:46;10.40;;;6.47;;
12535;SDS011;6334;48.696;2.114;2023-04-05T12:49:15;11.43;;;6.70;;
12535;SDS011;6334;48.696;2.114;2023-04-05T12:51:45;9.20;;;5.90;;
12535;SDS011;6334;48.696;2.114;2023-04-05T12:54:14;9.33;;;5.47;;
12535;SDS011;6334;48.696;2.114;2023-04-05T12:56:43;9.00;;;5.77;;
12535;SDS011;6334;48.696;2.114;2023-04-05T12:59:13;10.50;;;6.10;;
12535;SDS011;6334;48.696;2.114;2023-04-05T13:01:44;10.27;;;6.27;;
12535;SDS011;6334;48.696;2.114;2023-04-05T13:04:13;10.33;;;6.30;;
12535;SDS011;6334;48.696;2.114;2023-04-05T13:06:44;10.77;;;6.27;;
12535;SDS011;6334;48.696;2.114;2023-04-05T13:09:14;10.83;;;5.73;;
12535;SDS011;6334;48.696;2.114;2023-04-05T13:11:45;10.20;;;5.70;;
12535;SDS011;6334;48.696;2.114;2023-04-05T13:14:16;11.80;;;6.50;;
12535;SDS011;6334;48.696;2.114;2023-04-05T13:16:46;9.20;;;5.80;;
12535;SDS011;6334;48.696;2.114;2023-04-05T13:19:16;8.27;;;5.23;;
12535;SDS011;6334;48.696;2.114;2023-04-05T13:21:47;8.90;;;5.40;;
12535;SDS011;6334;48.696;2.114;2023-04-05T13:24:17;9.30;;;5.03;;
12535;SDS011;6334;48.696;2.114;2023-04-05T13:26:47;6.53;;;4.50;;
12535;SDS011;6334;48.696;2.114;2023-04-05T13:29:18;6.70;;;4.60;;
12535;SDS011;6334;48.696;2.114;2023-04-05T13:31:48;8.67;;;4.90;;
12535;SDS011;6334;48.696;2.114;2023-04-05T13:34:19;7.67;;;4.73;;
12535;SDS011;6334;48.696;2.114;2023-04-05T13:36:49;8.63;;;5.07;;
12535;SDS011;6334;48.696;2.114;2023-04-05T13:39:20;6.13;;;4.53;;
12535;SDS011;6334;48.696;2.114;2023-04-05T13:41:49;8.27;;;5.10;;
12535;SDS011;6334;48.696;2.114;2023-04-05T13:44:20;6.90;;;4.60;;
12535;SDS011;6334;48.696;2.114;2023-04-05T13:46:50;7.73;;;4.90;;
12535;SDS011;6334;48.696;2.114;2023-04-05T13:49:21;8.63;;;5.67;;
12535;SDS011;6334;48.696;2.114;2023-04-05T13:51:50;9.50;;;5.27;;
12535;SDS011;6334;48.696;2.114;2023-04-05T13:54:20;9.37;;;5.70;;
12535;SDS011;6334;48.696;2.114;2023-04-05T13:56:50;8.07;;;5.40;;
12535;SDS011;6334;48.696;2.114;2023-04-05T13:59:22;9.40;;;5.57;;
12535;SDS011;6334;48.696;2.114;2023-04-05T14:01:51;7.73;;;4.50;;
12535;SDS011;6334;48.696;2.114;2023-04-05T14:04:22;7.45;;;4.55;;
12535;SDS011;6334;48.696;2.114;2023-04-05T14:06:53;6.45;;;4.45;;
12535;SDS011;6334;48.696;2.114;2023-04-05T14:09:25;7.42;;;4.48;;
12535;SDS011;6334;48.696;2.114;2023-04-05T14:11:56;6.90;;;4.70;;
12535;SDS011;6334;48.696;2.114;2023-04-05T14:14:26;6.50;;;4.57;;
12535;SDS011;6334;48.696;2.114;2023-04-05T14:16:57;9.03;;;5.10;;
12535;SDS011;6334;48.696;2.114;2023-04-05T14:19:28;8.00;;;4.87;;
12535;SDS011;6334;48.696;2.114;2023-04-05T14:21:57;7.35;;;4.63;;
12535;SDS011;6334;48.696;2.114;2023-04-05T14:24:29;7.17;;;4.60;;
12535;SDS011;6334;48.696;2.114;2023-04-05T14:27:00;7.47;;;4.87;;
12535;SDS011;6334;48.696;2.114;2023-04-05T14:29:31;8.07;;;5.00;;
12535;SDS011;6334;48.696;2.114;2023-04-05T14:32:02;8.50;;;5.03;;
12535;SDS011;6334;48.696;2.114;2023-04-05T14:34:32;8.40;;;5.00;;
12535;SDS011;6334;48.696;2.114;2023-04-05T14:37:07;9.10;;;5.30;;
12535;SDS011;6334;48.696;2.114;2023-04-05T14:39:36;7.45;;;5.00;;
12535;SDS011;6334;48.696;2.114;2023-04-05T14:42:07;8.17;;;5.00;;
12535;SDS011;6334;48.696;2.114;2023-04-05T14:44:38;8.37;;;5.27;;
12535;SDS011;6334;48.696;2.114;2023-04-05T14:47:08;10.25;;;5.60;;
12535;SDS011;6334;48.696;2.114;2023-04-05T14:49:40;11.35;;;6.30;;
12535;SDS011;6334;48.696;2.114;2023-04-05T14:52:15;10.83;;;5.93;;
12535;SDS011;6334;48.696;2.114;2023-04-05T14:54:46;9.33;;;5.20;;
12535;SDS011;6334;48.696;2.114;2023-04-05T14:57:19;10.57;;;5.67;;
12535;SDS011;6334;48.696;2.114;2023-04-05T14:59:50;9.00;;;5.20;;
12535;SDS011;6334;48.696;2.114;2023-04-05T15:02:20;8.54;;;5.38;;
12535;SDS011;6334;48.696;2.114;2023-04-05T15:04:51;10.48;;;5.50;;
12535;SDS011;6334;48.696;2.114;2023-04-05T15:07:22;10.17;;;5.27;;
12535;SDS011;6334;48.696;2.114;2023-04-05T15:09:53;8.80;;;4.87;;
12535;SDS011;6334;48.696;2.114;2023-04-05T15:12:23;8.77;;;5.27;;
12535;SDS011;6334;48.696;2.114;2023-04-05T15:14:52;9.23;;;5.57;;
12535;SDS011;6334;48.696;2.114;2023-04-05T15:17:22;9.33;;;5.13;;
12535;SDS011;6334;48.696;2.114;2023-04-05T15:19:52;10.83;;;5.50;;
12535;SDS011;6334;48.696;2.114;2023-04-05T15:22:21;11.87;;;6.00;;
12535;SDS011;6334;48.696;2.114;2023-04-05T15:24:51;12.10;;;5.63;;
12535;SDS011;6334;48.696;2.114;2023-04-05T15:27:20;8.63;;;5.23;;
12535;SDS011;6334;48.696;2.114;2023-04-05T15:29:51;9.47;;;5.33;;
12535;SDS011;6334;48.696;2.114;2023-04-05T15:32:21;10.23;;;5.77;;
12535;SDS011;6334;48.696;2.114;2023-04-05T15:34:52;9.70;;;5.40;;
12535;SDS011;6334;48.696;2.114;2023-04-05T15:37:22;7.73;;;4.73;;
12535;SDS011;6334;48.696;2.114;2023-04-05T15:39:51;9.77;;;5.30;;
12535;SDS011;6334;48.696;2.114;2023-04-05T15:42:21;7.17;;;4.73;;
12535;SDS011;6334;48.696;2.114;2023-04-05T15:44:51;8.22;;;4.66;;
12535;SDS011;6334;48.696;2.114;2023-04-05T15:47:22;8.17;;;4.67;;